sensor_id;sensor_type;location;lat;lon;timestamp;pressure;altitude;pressure_sealevel;temperature;humidity
78615;BME280;67937;52.488;20.952;2023-10-31T00:00:33;99492.48;;;10.70;89.96
78615;BME280;67937;52.488;20.952;2023-10-31T00:03:20;99485.45;;;10.68;89.78
78615;BME280;67937;52.488;20.952;2023-10-31T00:05:47;99485.38;;;10.68;89.96
78615;BME280;67937;52.488;20.952;2023-10-31T00:08:13;99487.36;;;10.70;90.09
78615;BME280;67937;52.488;20.952;2023-10-31T00:10:40;99475.51;;;10.70;90.14
78615;BME280;67937;52.488;20.952;2023-10-31T00:13:10;99477.42;;;10.68;90.13
78615;BME280;67937;52.488;20.952;2023-10-31T00:15:37;99471.27;;;10.68;90.33
78615;BME280;67937;52.488;20.952;2023-10-31T00:18:04;99471.59;;;10.70;90.52
78615;BME280;67937;52.488;20.952;2023-10-31T00:20:30;99469.44;;;10.71;90.59
78615;BME280;67937;52.488;20.952;2023-10-31T00:22:57;99464.32;;;10.71;90.67
78615;BME280;67937;52.488;20.952;2023-10-31T00:25:23;99454.14;;;10.70;90.60
78615;BME280;67937;52.488;20.952;2023-10-31T00:27:50;99451.70;;;10.70;90.64
78615;BME280;67937;52.488;20.952;2023-10-31T00:30:16;99447.22;;;10.69;90.68
78615;BME280;67937;52.488;20.952;2023-10-31T00:32:43;99436.70;;;10.68;90.59
78615;BME280;67937;52.488;20.952;2023-10-31T00:35:10;99435.83;;;10.68;90.85
78615;BME280;67937;52.488;20.952;2023-10-31T00:37:38;99424.73;;;10.68;90.70
78615;BME280;67937;52.488;20.952;2023-10-31T00:40:07;99419.34;;;10.67;90.83
78615;BME280;67937;52.488;20.952;2023-10-31T00:42:39;99412.71;;;10.66;90.78
78615;BME280;67937;52.488;20.952;2023-10-31T00:45:08;99412.31;;;10.69;91.19
78615;BME280;67937;52.488;20.952;2023-10-31T00:47:35;99416.70;;;10.70;91.48
78615;BME280;67937;52.488;20.952;2023-10-31T00:50:01;99427.10;;;10.71;91.60
78615;BME280;67937;52.488;20.952;2023-10-31T00:52:28;99427.44;;;10.69;91.49
78615;BME280;67937;52.488;20.952;2023-10-31T00:54:55;99424.02;;;10.66;91.37
78615;BME280;67937;52.488;20.952;2023-10-31T00:57:21;99422.39;;;10.65;91.40
78615;BME280;67937;52.488;20.952;2023-10-31T00:59:48;99415.48;;;10.63;91.20
78615;BME280;67937;52.488;20.952;2023-10-31T01:02:14;99409.55;;;10.62;91.39
78615;BME280;67937;52.488;20.952;2023-10-31T01:04:41;99404.20;;;10.59;91.31
78615;BME280;67937;52.488;20.952;2023-10-31T01:07:08;99395.27;;;10.64;91.38
78615;BME280;67937;52.488;20.952;2023-10-31T01:09:38;99388.94;;;10.60;91.36
78615;BME280;67937;52.488;20.952;2023-10-31T01:12:05;99372.48;;;10.59;91.37
78615;BME280;67937;52.488;20.952;2023-10-31T01:14:32;99368.30;;;10.58;91.57
78615;BME280;67937;52.488;20.952;2023-10-31T01:16:58;99358.06;;;10.59;91.86
78615;BME280;67937;52.488;20.952;2023-10-31T01:19:25;99349.91;;;10.61;91.86
78615;BME280;67937;52.488;20.952;2023-10-31T01:21:51;99347.33;;;10.62;91.99
78615;BME280;67937;52.488;20.952;2023-10-31T01:24:18;99344.27;;;10.64;92.00
78615;BME280;67937;52.488;20.952;2023-10-31T01:26:44;99346.55;;;10.68;91.89
78615;BME280;67937;52.488;20.952;2023-10-31T01:29:11;99345.42;;;10.72;91.94
78615;BME280;67937;52.488;20.952;2023-10-31T01:31:41;99334.20;;;10.77;91.76
78615;BME280;67937;52.488;20.952;2023-10-31T01:34:07;99320.27;;;10.79;91.93
78615;BME280;67937;52.488;20.952;2023-10-31T01:36:34;99310.31;;;10.80;91.81
78615;BME280;67937;52.488;20.952;2023-10-31T01:39:01;99299.42;;;10.79;91.91
78615;BME280;67937;52.488;20.952;2023-10-31T01:41:27;99294.96;;;10.80;92.11
78615;BME280;67937;52.488;20.952;2023-10-31T01:43:54;99289.48;;;10.78;91.88
78615;BME280;67937;52.488;20.952;2023-10-31T01:46:20;99285.95;;;10.81;91.97
78615;BME280;67937;52.488;20.952;2023-10-31T01:48:47;99295.64;;;10.82;92.00
78615;BME280;67937;52.488;20.952;2023-10-31T01:51:14;99296.27;;;10.83;92.22
78615;BME280;67937;52.488;20.952;2023-10-31T01:53:41;99298.98;;;10.82;92.15
78615;BME280;67937;52.488;20.952;2023-10-31T01:56:07;99284.48;;;10.80;91.96
78615;BME280;67937;52.488;20.952;2023-10-31T01:58:36;99275.65;;;10.82;92.03
78615;BME280;67937;52.488;20.952;2023-10-31T02:01:04;99273.80;;;10.81;92.03
78615;BME280;67937;52.488;20.952;2023-10-31T02:03:31;99287.98;;;10.89;92.58
78615;BME280;67937;52.488;20.952;2023-10-31T02:05:59;99287.15;;;10.82;92.75
78615;BME280;67937;52.488;20.952;2023-10-31T02:08:25;99272.77;;;10.78;92.90
78615;BME280;67937;52.488;20.952;2023-10-31T02:10:52;99267.40;;;10.76;92.99
78615;BME280;67937;52.488;20.952;2023-10-31T02:13:19;99268.71;;;10.76;93.04
78615;BME280;67937;52.488;20.952;2023-10-31T02:15:45;99257.69;;;10.75;93.25
78615;BME280;67937;52.488;20.952;2023-10-31T02:18:12;99233.63;;;10.72;93.20
78615;BME280;67937;52.488;20.952;2023-10-31T02:20:39;99214.15;;;10.69;93.40
78615;BME280;67937;52.488;20.952;2023-10-31T02:23:05;99200.25;;;10.68;93.26
78615;BME280;67937;52.488;20.952;2023-10-31T02:25:32;99198.72;;;10.70;93.37
78615;BME280;67937;52.488;20.952;2023-10-31T02:27:59;99203.20;;;10.74;93.16
78615;BME280;67937;52.488;20.952;2023-10-31T02:30:26;99197.91;;;10.78;93.08
78615;BME280;67937;52.488;20.952;2023-10-31T02:32:53;99183.34;;;10.83;93.16
78615;BME280;67937;52.488;20.952;2023-10-31T02:35:20;99184.34;;;10.85;93.05
78615;BME280;67937;52.488;20.952;2023-10-31T02:37:47;99193.77;;;10.88;92.86
78615;BME280;67937;52.488;20.952;2023-10-31T02:40:14;99190.32;;;10.87;92.65
78615;BME280;67937;52.488;20.952;2023-10-31T02:42:41;99187.45;;;10.85;92.53
78615;BME280;67937;52.488;20.952;2023-10-31T02:45:08;99191.00;;;10.85;92.48
78615;BME280;67937;52.488;20.952;2023-10-31T02:47:34;99188.62;;;10.84;92.41
78615;BME280;67937;52.488;20.952;2023-10-31T02:50:01;99186.48;;;10.83;92.27
78615;BME280;67937;52.488;20.952;2023-10-31T02:52:27;99189.64;;;10.81;92.23
78615;BME280;67937;52.488;20.952;2023-10-31T02:54:54;99189.50;;;10.81;92.14
78615;BME280;67937;52.488;20.952;2023-10-31T02:57:21;99178.84;;;10.80;92.16
78615;BME280;67937;52.488;20.952;2023-10-31T02:59:47;99181.20;;;10.79;92.13
78615;BME280;67937;52.488;20.952;2023-10-31T03:02:14;99169.96;;;10.79;91.97
78615;BME280;67937;52.488;20.952;2023-10-31T03:04:40;99156.74;;;10.80;91.96
78615;BME280;67937;52.488;20.952;2023-10-31T03:07:07;99153.86;;;10.81;92.08
78615;BME280;67937;52.488;20.952;2023-10-31T03:09:33;99147.10;;;10.83;92.03
78615;BME280;67937;52.488;20.952;2023-10-31T03:12:00;99138.23;;;10.85;91.90
78615;BME280;67937;52.488;20.952;2023-10-31T03:14:26;99129.88;;;10.87;91.95
78615;BME280;67937;52.488;20.952;2023-10-31T03:16:53;99121.60;;;10.91;92.03
78615;BME280;67937;52.488;20.952;2023-10-31T03:19:20;99118.63;;;10.94;91.86
78615;BME280;67937;52.488;20.952;2023-10-31T03:21:47;99105.70;;;11.00;91.91
78615;BME280;67937;52.488;20.952;2023-10-31T03:24:13;99102.79;;;11.04;91.97
78615;BME280;67937;52.488;20.952;2023-10-31T03:26:40;99098.90;;;11.10;91.86
78615;BME280;67937;52.488;20.952;2023-10-31T03:29:06;99111.05;;;11.18;92.30
78615;BME280;67937;52.488;20.952;2023-10-31T03:31:33;99109.25;;;11.17;91.91
78615;BME280;67937;52.488;20.952;2023-10-31T03:33:59;99108.58;;;11.18;91.97
78615;BME280;67937;52.488;20.952;2023-10-31T03:36:26;99108.10;;;11.21;91.97
78615;BME280;67937;52.488;20.952;2023-10-31T03:38:52;99108.29;;;11.23;91.86
78615;BME280;67937;52.488;20.952;2023-10-31T03:41:19;99111.93;;;11.25;91.96
78615;BME280;67937;52.488;20.952;2023-10-31T03:43:45;99099.55;;;11.22;91.93
78615;BME280;67937;52.488;20.952;2023-10-31T03:46:13;99098.48;;;11.20;92.05
78615;BME280;67937;52.488;20.952;2023-10-31T03:48:39;99090.02;;;11.18;92.09
78615;BME280;67937;52.488;20.952;2023-10-31T03:51:06;99086.07;;;11.16;92.04
78615;BME280;67937;52.488;20.952;2023-10-31T03:53:32;99071.90;;;11.15;92.03
78615;BME280;67937;52.488;20.952;2023-10-31T03:55:59;99058.04;;;11.15;92.05
78615;BME280;67937;52.488;20.952;2023-10-31T03:58:26;99057.05;;;11.18;92.10
78615;BME280;67937;52.488;20.952;2023-10-31T04:00:52;99051.31;;;11.21;92.19
78615;BME280;67937;52.488;20.952;2023-10-31T04:03:19;99038.55;;;11.23;91.90
78615;BME280;67937;52.488;20.952;2023-10-31T04:05:45;99033.34;;;11.26;91.92
78615;BME280;67937;52.488;20.952;2023-10-31T04:08:12;99019.36;;;11.31;91.84
78615;BME280;67937;52.488;20.952;2023-10-31T04:10:38;99011.16;;;11.35;91.79
78615;BME280;67937;52.488;20.952;2023-10-31T04:13:05;99005.20;;;11.38;91.84
78615;BME280;67937;52.488;20.952;2023-10-31T04:15:32;99009.02;;;11.42;91.57
78615;BME280;67937;52.488;20.952;2023-10-31T04:18:00;99016.70;;;11.46;91.58
78615;BME280;67937;52.488;20.952;2023-10-31T04:20:27;99010.02;;;11.49;91.72
78615;BME280;67937;52.488;20.952;2023-10-31T04:22:54;99009.66;;;11.51;91.85
78615;BME280;67937;52.488;20.952;2023-10-31T04:25:20;99004.33;;;11.53;91.84
78615;BME280;67937;52.488;20.952;2023-10-31T04:27:47;99004.11;;;11.52;91.87
78615;BME280;67937;52.488;20.952;2023-10-31T04:30:15;99003.38;;;11.52;91.85
78615;BME280;67937;52.488;20.952;2023-10-31T04:32:42;98996.95;;;11.52;91.68
78615;BME280;67937;52.488;20.952;2023-10-31T04:35:08;98990.92;;;11.53;91.53
78615;BME280;67937;52.488;20.952;2023-10-31T04:37:35;98975.85;;;11.53;91.60
78615;BME280;67937;52.488;20.952;2023-10-31T04:40:01;98976.21;;;11.60;91.53
78615;BME280;67937;52.488;20.952;2023-10-31T04:42:28;98978.58;;;11.63;91.60
78615;BME280;67937;52.488;20.952;2023-10-31T04:44:55;98978.95;;;11.66;91.66
78615;BME280;67937;52.488;20.952;2023-10-31T04:47:21;98974.95;;;11.69;91.73
78615;BME280;67937;52.488;20.952;2023-10-31T04:49:48;98971.05;;;11.72;91.83
78615;BME280;67937;52.488;20.952;2023-10-31T04:52:15;98963.38;;;11.74;91.72
78615;BME280;67937;52.488;20.952;2023-10-31T04:54:42;98952.72;;;11.78;91.53
78615;BME280;67937;52.488;20.952;2023-10-31T04:57:09;98946.56;;;11.81;91.38
78615;BME280;67937;52.488;20.952;2023-10-31T04:59:35;98937.48;;;11.84;91.22
78615;BME280;67937;52.488;20.952;2023-10-31T05:02:02;98934.75;;;11.88;91.05
78615;BME280;67937;52.488;20.952;2023-10-31T05:04:28;98932.84;;;11.94;90.59
78615;BME280;67937;52.488;20.952;2023-10-31T05:06:55;98931.85;;;11.98;90.31
78615;BME280;67937;52.488;20.952;2023-10-31T05:09:23;98918.33;;;12.02;90.12
78615;BME280;67937;52.488;20.952;2023-10-31T05:11:49;98913.99;;;12.06;89.91
78615;BME280;67937;52.488;20.952;2023-10-31T05:14:16;98912.44;;;12.09;89.59
78615;BME280;67937;52.488;20.952;2023-10-31T05:16:43;98909.79;;;12.11;89.58
78615;BME280;67937;52.488;20.952;2023-10-31T05:19:10;98908.73;;;12.14;89.42
78615;BME280;67937;52.488;20.952;2023-10-31T05:21:37;98900.34;;;12.19;89.38
78615;BME280;67937;52.488;20.952;2023-10-31T05:24:04;98889.17;;;12.23;89.43
78615;BME280;67937;52.488;20.952;2023-10-31T05:26:31;98885.95;;;12.28;89.02
78615;BME280;67937;52.488;20.952;2023-10-31T05:28:57;98893.16;;;12.30;88.94
78615;BME280;67937;52.488;20.952;2023-10-31T05:31:24;98885.19;;;12.33;88.58
78615;BME280;67937;52.488;20.952;2023-10-31T05:33:51;98888.58;;;12.38;88.29
78615;BME280;67937;52.488;20.952;2023-10-31T05:36:23;98884.59;;;12.43;87.92
78615;BME280;67937;52.488;20.952;2023-10-31T05:38:50;98881.67;;;12.43;88.01
78615;BME280;67937;52.488;20.952;2023-10-31T05:41:16;98876.70;;;12.49;87.81
78615;BME280;67937;52.488;20.952;2023-10-31T05:43:43;98875.73;;;12.50;88.06
78615;BME280;67937;52.488;20.952;2023-10-31T05:46:10;98875.98;;;12.52;87.89
78615;BME280;67937;52.488;20.952;2023-10-31T05:48:38;98871.36;;;12.57;87.29
78615;BME280;67937;52.488;20.952;2023-10-31T05:51:11;98869.00;;;12.58;87.41
78615;BME280;67937;52.488;20.952;2023-10-31T05:53:39;98867.15;;;12.60;87.30
78615;BME280;67937;52.488;20.952;2023-10-31T05:56:08;98865.45;;;12.64;87.39
78615;BME280;67937;52.488;20.952;2023-10-31T05:58:36;98859.86;;;12.67;87.11
78615;BME280;67937;52.488;20.952;2023-10-31T06:01:03;98865.23;;;12.72;86.85
78615;BME280;67937;52.488;20.952;2023-10-31T06:03:29;98868.27;;;12.77;86.88
78615;BME280;67937;52.488;20.952;2023-10-31T06:05:56;98862.38;;;12.80;86.79
78615;BME280;67937;52.488;20.952;2023-10-31T06:08:22;98861.68;;;12.84;86.32
78615;BME280;67937;52.488;20.952;2023-10-31T06:10:50;98856.19;;;12.85;86.19
78615;BME280;67937;52.488;20.952;2023-10-31T06:13:17;98854.09;;;12.88;86.13
78615;BME280;67937;52.488;20.952;2023-10-31T06:15:43;98849.64;;;12.90;85.94
78615;BME280;67937;52.488;20.952;2023-10-31T06:18:10;98849.88;;;12.89;85.95
78615;BME280;67937;52.488;20.952;2023-10-31T06:20:37;98848.10;;;12.90;85.73
78615;BME280;67937;52.488;20.952;2023-10-31T06:23:03;98844.86;;;12.92;85.48
78615;BME280;67937;52.488;20.952;2023-10-31T06:25:30;98843.83;;;12.93;85.43
78615;BME280;67937;52.488;20.952;2023-10-31T06:27:56;98841.27;;;12.96;85.37
78615;BME280;67937;52.488;20.952;2023-10-31T06:30:23;98842.94;;;12.99;85.10
78615;BME280;67937;52.488;20.952;2023-10-31T06:32:52;98844.13;;;12.98;85.29
78615;BME280;67937;52.488;20.952;2023-10-31T06:35:19;98844.14;;;12.98;85.42
78615;BME280;67937;52.488;20.952;2023-10-31T06:37:45;98832.41;;;12.96;85.51
78615;BME280;67937;52.488;20.952;2023-10-31T06:40:12;98830.59;;;12.98;85.35
78615;BME280;67937;52.488;20.952;2023-10-31T06:42:38;98830.27;;;12.97;85.16
78615;BME280;67937;52.488;20.952;2023-10-31T06:45:05;98824.16;;;12.98;85.07
78615;BME280;67937;52.488;20.952;2023-10-31T06:47:33;98816.84;;;12.99;85.29
78615;BME280;67937;52.488;20.952;2023-10-31T06:49:59;98817.84;;;13.02;85.21
78615;BME280;67937;52.488;20.952;2023-10-31T06:52:26;98815.69;;;13.01;85.49
78615;BME280;67937;52.488;20.952;2023-10-31T06:54:53;98811.63;;;13.16;84.25
78615;BME280;67937;52.488;20.952;2023-10-31T06:57:19;98818.14;;;13.08;84.97
78615;BME280;67937;52.488;20.952;2023-10-31T06:59:46;98819.53;;;13.08;84.74
78615;BME280;67937;52.488;20.952;2023-10-31T07:02:12;98815.45;;;13.06;84.89
78615;BME280;67937;52.488;20.952;2023-10-31T07:04:39;98818.07;;;13.08;84.78
78615;BME280;67937;52.488;20.952;2023-10-31T07:07:06;98816.23;;;13.16;84.63
78615;BME280;67937;52.488;20.952;2023-10-31T07:09:33;98823.89;;;13.19;84.53
78615;BME280;67937;52.488;20.952;2023-10-31T07:12:00;98836.09;;;13.24;84.00
78615;BME280;67937;52.488;20.952;2023-10-31T07:14:26;98826.23;;;13.23;84.12
78615;BME280;67937;52.488;20.952;2023-10-31T07:16:53;98833.55;;;13.26;84.44
78615;BME280;67937;52.488;20.952;2023-10-31T07:19:19;98801.94;;;13.27;84.56
78615;BME280;67937;52.488;20.952;2023-10-31T07:21:46;98805.97;;;13.41;83.90
78615;BME280;67937;52.488;20.952;2023-10-31T07:24:13;98822.42;;;13.61;83.42
78615;BME280;67937;52.488;20.952;2023-10-31T07:26:39;98821.36;;;13.54;84.09
78615;BME280;67937;52.488;20.952;2023-10-31T07:29:06;98818.73;;;13.44;84.70
78615;BME280;67937;52.488;20.952;2023-10-31T07:31:33;98813.48;;;13.34;85.48
78615;BME280;67937;52.488;20.952;2023-10-31T07:34:07;98812.05;;;13.26;85.98
78615;BME280;67937;52.488;20.952;2023-10-31T07:36:35;98811.75;;;13.17;86.50
78615;BME280;67937;52.488;20.952;2023-10-31T07:39:01;98818.13;;;13.14;86.70
78615;BME280;67937;52.488;20.952;2023-10-31T07:41:28;98824.84;;;13.15;86.60
78615;BME280;67937;52.488;20.952;2023-10-31T07:43:55;98815.20;;;13.15;86.58
78615;BME280;67937;52.488;20.952;2023-10-31T07:46:21;98813.20;;;13.07;86.77
78615;BME280;67937;52.488;20.952;2023-10-31T07:48:49;98811.93;;;13.06;86.97
78615;BME280;67937;52.488;20.952;2023-10-31T07:51:16;98815.91;;;13.07;87.20
78615;BME280;67937;52.488;20.952;2023-10-31T07:53:42;98811.97;;;13.06;87.44
78615;BME280;67937;52.488;20.952;2023-10-31T07:56:16;98809.45;;;13.06;87.06
78615;BME280;67937;52.488;20.952;2023-10-31T07:58:43;98810.45;;;13.02;87.14
78615;BME280;67937;52.488;20.952;2023-10-31T08:01:10;98807.92;;;13.02;87.12
78615;BME280;67937;52.488;20.952;2023-10-31T08:03:37;98794.70;;;13.05;86.73
78615;BME280;67937;52.488;20.952;2023-10-31T08:06:05;98798.26;;;13.08;86.57
78615;BME280;67937;52.488;20.952;2023-10-31T08:08:32;98801.11;;;13.06;86.63
78615;BME280;67937;52.488;20.952;2023-10-31T08:10:59;98792.73;;;13.07;86.73
78615;BME280;67937;52.488;20.952;2023-10-31T08:13:26;98788.62;;;13.05;86.90
78615;BME280;67937;52.488;20.952;2023-10-31T08:15:53;98773.45;;;13.07;86.90
78615;BME280;67937;52.488;20.952;2023-10-31T08:18:19;98762.80;;;13.13;86.56
78615;BME280;67937;52.488;20.952;2023-10-31T08:20:46;98765.90;;;13.15;86.28
78615;BME280;67937;52.488;20.952;2023-10-31T08:23:15;98762.34;;;13.17;86.01
78615;BME280;67937;52.488;20.952;2023-10-31T08:25:41;98759.91;;;13.18;85.85
78615;BME280;67937;52.488;20.952;2023-10-31T08:28:08;98754.02;;;13.21;85.31
78615;BME280;67937;52.488;20.952;2023-10-31T08:30:35;98753.56;;;13.30;84.96
78615;BME280;67937;52.488;20.952;2023-10-31T08:33:01;98756.14;;;13.32;84.54
78615;BME280;67937;52.488;20.952;2023-10-31T08:35:28;98755.90;;;13.37;84.38
78615;BME280;67937;52.488;20.952;2023-10-31T08:37:55;98750.79;;;13.41;84.50
78615;BME280;67937;52.488;20.952;2023-10-31T08:40:22;98751.37;;;13.49;84.00
78615;BME280;67937;52.488;20.952;2023-10-31T08:42:48;98747.16;;;13.51;84.03
78615;BME280;67937;52.488;20.952;2023-10-31T08:45:15;98749.17;;;13.54;83.74
78615;BME280;67937;52.488;20.952;2023-10-31T08:47:41;98741.48;;;13.51;83.93
78615;BME280;67937;52.488;20.952;2023-10-31T08:50:08;98739.23;;;13.55;83.80
78615;BME280;67937;52.488;20.952;2023-10-31T08:52:35;98732.23;;;13.62;83.14
78615;BME280;67937;52.488;20.952;2023-10-31T08:55:01;98726.18;;;13.61;83.61
78615;BME280;67937;52.488;20.952;2023-10-31T08:57:28;98722.45;;;13.71;82.81
78615;BME280;67937;52.488;20.952;2023-10-31T08:59:54;98725.13;;;13.83;81.97
78615;BME280;67937;52.488;20.952;2023-10-31T09:02:21;98727.52;;;13.94;81.47
78615;BME280;67937;52.488;20.952;2023-10-31T09:04:48;98731.58;;;14.04;80.81
78615;BME280;67937;52.488;20.952;2023-10-31T09:07:14;98732.64;;;14.12;80.09
78615;BME280;67937;52.488;20.952;2023-10-31T09:09:41;98727.83;;;14.13;80.20
78615;BME280;67937;52.488;20.952;2023-10-31T09:12:08;98728.43;;;14.16;80.04
78615;BME280;67937;52.488;20.952;2023-10-31T09:14:35;98709.09;;;14.17;80.21
78615;BME280;67937;52.488;20.952;2023-10-31T09:17:02;98702.76;;;14.16;80.23
78615;BME280;67937;52.488;20.952;2023-10-31T09:19:29;98720.73;;;14.17;80.40
78615;BME280;67937;52.488;20.952;2023-10-31T09:21:56;98717.84;;;14.14;80.65
78615;BME280;67937;52.488;20.952;2023-10-31T09:24:22;98711.95;;;14.14;80.44
78615;BME280;67937;52.488;20.952;2023-10-31T09:26:49;98715.59;;;14.20;80.24
78615;BME280;67937;52.488;20.952;2023-10-31T09:29:16;98714.90;;;14.22;79.97
78615;BME280;67937;52.488;20.952;2023-10-31T09:31:43;98727.09;;;14.26;79.40
78615;BME280;67937;52.488;20.952;2023-10-31T09:34:09;98726.40;;;14.22;80.25
78615;BME280;67937;52.488;20.952;2023-10-31T09:36:36;98735.02;;;14.26;79.83
78615;BME280;67937;52.488;20.952;2023-10-31T09:39:02;98737.93;;;14.36;78.77
78615;BME280;67937;52.488;20.952;2023-10-31T09:41:29;98739.35;;;14.34;78.65
78615;BME280;67937;52.488;20.952;2023-10-31T09:43:58;98742.82;;;14.51;77.44
78615;BME280;67937;52.488;20.952;2023-10-31T09:46:24;98750.09;;;14.64;77.22
78615;BME280;67937;52.488;20.952;2023-10-31T09:48:51;98751.13;;;14.69;77.43
78615;BME280;67937;52.488;20.952;2023-10-31T09:51:18;98750.70;;;14.86;75.67
78615;BME280;67937;52.488;20.952;2023-10-31T09:53:45;98751.42;;;14.94;76.42
78615;BME280;67937;52.488;20.952;2023-10-31T09:56:14;98753.07;;;14.99;75.81
78615;BME280;67937;52.488;20.952;2023-10-31T09:58:40;98749.95;;;15.08;75.12
78615;BME280;67937;52.488;20.952;2023-10-31T10:01:07;98750.26;;;15.17;74.94
78615;BME280;67937;52.488;20.952;2023-10-31T10:03:34;98750.34;;;15.21;75.03
78615;BME280;67937;52.488;20.952;2023-10-31T10:06:02;98747.60;;;15.21;74.72
78615;BME280;67937;52.488;20.952;2023-10-31T10:08:28;98745.96;;;15.26;74.23
78615;BME280;67937;52.488;20.952;2023-10-31T10:10:55;98745.33;;;15.24;74.12
78615;BME280;67937;52.488;20.952;2023-10-31T10:13:22;98745.66;;;15.28;73.98
78615;BME280;67937;52.488;20.952;2023-10-31T10:15:50;98741.32;;;15.32;73.64
78615;BME280;67937;52.488;20.952;2023-10-31T10:18:32;98744.01;;;15.38;72.95
78615;BME280;67937;52.488;20.952;2023-10-31T10:21:01;98744.54;;;15.51;72.34
78615;BME280;67937;52.488;20.952;2023-10-31T10:23:29;98743.13;;;15.49;72.59
78615;BME280;67937;52.488;20.952;2023-10-31T10:25:57;98745.44;;;15.55;72.24
78615;BME280;67937;52.488;20.952;2023-10-31T10:28:25;98744.00;;;15.56;72.40
78615;BME280;67937;52.488;20.952;2023-10-31T10:30:53;98747.29;;;15.59;72.43
78615;BME280;67937;52.488;20.952;2023-10-31T10:33:21;98744.83;;;15.70;71.75
78615;BME280;67937;52.488;20.952;2023-10-31T10:35:48;98743.02;;;15.81;71.16
78615;BME280;67937;52.488;20.952;2023-10-31T10:38:17;98746.79;;;15.86;71.28
78615;BME280;67937;52.488;20.952;2023-10-31T10:40:48;98750.16;;;15.93;71.05
78615;BME280;67937;52.488;20.952;2023-10-31T10:43:23;98751.88;;;15.99;70.68
78615;BME280;67937;52.488;20.952;2023-10-31T10:45:54;98748.27;;;16.05;70.26
78615;BME280;67937;52.488;20.952;2023-10-31T10:48:23;98746.50;;;16.05;70.70
78615;BME280;67937;52.488;20.952;2023-10-31T10:51:11;98745.56;;;16.07;70.46
78615;BME280;67937;52.488;20.952;2023-10-31T10:54:02;98745.95;;;16.15;70.00
78615;BME280;67937;52.488;20.952;2023-10-31T10:56:38;98741.39;;;16.14;70.45
78615;BME280;67937;52.488;20.952;2023-10-31T10:59:18;98737.43;;;16.23;69.96
78615;BME280;67937;52.488;20.952;2023-10-31T11:01:46;98740.56;;;16.30;69.75
78615;BME280;67937;52.488;20.952;2023-10-31T11:04:15;98744.16;;;16.29;70.01
78615;BME280;67937;52.488;20.952;2023-10-31T11:06:43;98743.79;;;16.29;70.40
78615;BME280;67937;52.488;20.952;2023-10-31T11:09:11;98743.56;;;16.26;70.51
78615;BME280;67937;52.488;20.952;2023-10-31T11:11:39;98743.19;;;16.31;70.28
78615;BME280;67937;52.488;20.952;2023-10-31T11:14:07;98743.49;;;16.27;71.02
78615;BME280;67937;52.488;20.952;2023-10-31T11:16:49;98746.27;;;16.30;70.59
78615;BME280;67937;52.488;20.952;2023-10-31T11:19:17;98747.23;;;16.39;70.28
78615;BME280;67937;52.488;20.952;2023-10-31T11:22:01;98749.48;;;16.44;70.37
78615;BME280;67937;52.488;20.952;2023-10-31T11:24:31;98749.67;;;16.49;70.40
78615;BME280;67937;52.488;20.952;2023-10-31T11:26:59;98751.16;;;16.50;70.74
78615;BME280;67937;52.488;20.952;2023-10-31T11:29:26;98754.27;;;16.56;70.66
78615;BME280;67937;52.488;20.952;2023-10-31T11:31:56;98760.56;;;16.59;70.59
78615;BME280;67937;52.488;20.952;2023-10-31T11:34:23;98765.46;;;16.58;70.99
78615;BME280;67937;52.488;20.952;2023-10-31T11:36:52;98770.84;;;16.66;70.82
78615;BME280;67937;52.488;20.952;2023-10-31T11:39:21;98776.15;;;16.61;71.20
78615;BME280;67937;52.488;20.952;2023-10-31T11:41:55;98780.94;;;16.57;71.55
78615;BME280;67937;52.488;20.952;2023-10-31T11:44:25;98780.80;;;16.52;71.89
78615;BME280;67937;52.488;20.952;2023-10-31T11:46:52;98780.79;;;16.47;72.54
78615;BME280;67937;52.488;20.952;2023-10-31T11:49:47;98789.20;;;16.38;73.44
78615;BME280;67937;52.488;20.952;2023-10-31T11:52:15;98778.31;;;16.43;73.94
78615;BME280;67937;52.488;20.952;2023-10-31T11:54:42;98784.67;;;16.37;74.61
78615;BME280;67937;52.488;20.952;2023-10-31T11:57:10;98785.56;;;16.28;75.62
78615;BME280;67937;52.488;20.952;2023-10-31T11:59:39;98785.23;;;16.17;76.56
78615;BME280;67937;52.488;20.952;2023-10-31T12:02:14;98795.29;;;15.98;77.77
78615;BME280;67937;52.488;20.952;2023-10-31T12:04:40;98794.41;;;15.96;78.16
78615;BME280;67937;52.488;20.952;2023-10-31T12:07:08;98797.62;;;15.92;78.38
78615;BME280;67937;52.488;20.952;2023-10-31T12:09:47;98799.98;;;15.87;78.61
78615;BME280;67937;52.488;20.952;2023-10-31T12:12:15;98801.22;;;15.82;79.05
78615;BME280;67937;52.488;20.952;2023-10-31T12:14:41;98808.10;;;15.80;79.36
78615;BME280;67937;52.488;20.952;2023-10-31T12:17:08;98805.25;;;15.84;78.96
78615;BME280;67937;52.488;20.952;2023-10-31T12:19:36;98811.23;;;15.79;79.17
78615;BME280;67937;52.488;20.952;2023-10-31T12:22:12;98811.79;;;15.72;79.49
78615;BME280;67937;52.488;20.952;2023-10-31T12:24:39;98811.61;;;15.69;79.85
78615;BME280;67937;52.488;20.952;2023-10-31T12:27:05;98811.57;;;15.74;79.35
78615;BME280;67937;52.488;20.952;2023-10-31T12:29:32;98814.61;;;15.72;79.75
78615;BME280;67937;52.488;20.952;2023-10-31T12:31:59;98814.86;;;15.70;79.63
78615;BME280;67937;52.488;20.952;2023-10-31T12:34:25;98819.45;;;15.67;79.63
78615;BME280;67937;52.488;20.952;2023-10-31T12:36:54;98824.57;;;15.62;79.85
78615;BME280;67937;52.488;20.952;2023-10-31T12:39:23;98820.73;;;15.63;79.82
78615;BME280;67937;52.488;20.952;2023-10-31T12:41:52;98826.61;;;15.61;79.83
78615;BME280;67937;52.488;20.952;2023-10-31T12:44:26;98826.54;;;15.59;79.96
78615;BME280;67937;52.488;20.952;2023-10-31T12:46:53;98831.91;;;15.44;80.44
78615;BME280;67937;52.488;20.952;2023-10-31T12:49:20;98830.35;;;15.44;80.57
78615;BME280;67937;52.488;20.952;2023-10-31T12:57:00;98838.96;;;15.46;80.43